Time;durP1;ratioP1;P1;durP2;ratioP2;P2;SDS_P1;SDS_P2;PMS_P1;PMS_P2;Temp;Humidity;BMP_temperature;BMP_pressure;BME280_temperature;BME280_humidity;BME280_pressure;Samples;Min_cycle;Max_cycle;Signal;HPM_P1;HPM_P2
2024/01/14 00:00:34;;;;;;;;;;;;;;;;;;5041334;28;1327;-71
2024/01/14 00:03:03;;;;;;;;;;;;;;;;;;5043290;28;1942;-73
2024/01/14 00:05:29;;;;;;;;;;;;;;;;;;5041454;28;1321;-72
2024/01/14 00:07:57;;;;;;;;;;;;;;;;;;5041921;28;1344;-72
2024/01/14 00:10:26;;;;;;;;;;;;;;;;;;5043344;28;869;-73
2024/01/14 00:12:51;;;;;;;;;;;;;;;;;;5041721;28;1502;-74
2024/01/14 00:15:20;;;;;;;;;;;;;;;;;;5061721;28;1647;-71
2024/01/14 00:17:46;;;;;;;;;;;;;;;;;;5042922;28;948;-71
2024/01/14 00:20:11;;;;;;;;;;;;;;;;;;5055292;28;1308;-71
2024/01/14 00:22:37;;;;;;;;;;;;;;;;;;5040075;28;1957;-73
2024/01/14 00:25:02;;;;;;;;;;;;;;;;;;5054159;28;868;-75
2024/01/14 00:27:28;;;;;;;;;;;;;;;;;;5039414;28;847;-72
2024/01/14 00:29:57;;;;;;;;;;;;;;;;;;5039204;28;820;-74
2024/01/14 00:32:23;;;;;;;;;;;;;;;;;;5056788;28;1408;-72
2024/01/14 00:34:48;;;;;;;;;;;;;;;;;;5039796;28;1431;-73
2024/01/14 00:37:13;;;;;;;;;;;;;;;;;;5038572;28;1037;-71
2024/01/14 00:39:39;;;;;;;;;;;;;;;;;;5038359;28;1039;-71
2024/01/14 00:42:07;;;;;;;;;;;;;;;;;;5038713;28;1940;-71
2024/01/14 00:44:32;;;;;;;;;;;;;;;;;;5038314;28;860;-71
2024/01/14 00:47:01;;;;;;;;;;;;;;;;;;5037022;28;1567;-72
2024/01/14 00:49:29;;;;;;;;;;;;;;;;;;5021255;28;790;-72
2024/01/14 00:52:00;;;;;;;;;;;;;;;;;;5039731;28;1221;-76
2024/01/14 00:54:35;;;;;;;;;;;;;;;;;;5060153;28;1864;-77
2024/01/14 00:57:00;;;;;;;;;;;;;;;;;;5044161;28;901;-77
2024/01/14 00:59:25;;;;;;;;;;;;;;;;;;5036536;28;1027;-77
2024/01/14 01:01:50;;;;;;;;;;;;;;;;;;5036914;28;1906;-77
2024/01/14 01:04:16;;;;;;;;;;;;;;;;;;5036551;28;880;-77
2024/01/14 01:06:41;;;;;;;;;;;;;;;;;;5036693;28;881;-77
2024/01/14 01:09:06;;;;;;;;;;;;;;;;;;5036933;28;782;-77
2024/01/14 01:11:32;;;;;;;;;;;;;;;;;;5036038;28;1325;-77
2024/01/14 01:13:57;;;;;;;;;;;;;;;;;;5053781;28;1287;-76
2024/01/14 01:16:22;;;;;;;;;;;;;;;;;;5037474;28;1069;-77
2024/01/14 01:18:47;;;;;;;;;;;;;;;;;;5037023;28;844;-77
2024/01/14 01:21:22;;;;;;;;;;;;;;;;;;5035714;28;1135;-77
2024/01/14 01:23:47;;;;;;;;;;;;;;;;;;5036891;28;930;-77
2024/01/14 01:26:13;;;;;;;;;;;;;;;;;;5037276;28;837;-77
2024/01/14 01:28:38;;;;;;;;;;;;;;;;;;5034761;28;1366;-78
2024/01/14 01:31:03;;;;;;;;;;;;;;;;;;5036151;28;1019;-77
2024/01/14 01:33:28;;;;;;;;;;;;;;;;;;5036516;28;958;-77
2024/01/14 01:35:54;;;;;;;;;;;;;;;;;;5036981;28;844;-77
2024/01/14 01:38:19;;;;;;;;;;;;;;;;;;5052175;28;1479;-77
2024/01/14 01:40:46;;;;;;;;;;;;;;;;;;5034766;28;1307;-77
2024/01/14 01:43:11;;;;;;;;;;;;;;;;;;5014109;28;1887;-71
2024/01/14 01:45:37;;;;;;;;;;;;;;;;;;5032553;28;1212;-71
2024/01/14 01:48:04;;;;;;;;;;;;;;;;;;5032086;28;1209;-71
2024/01/14 01:50:30;;;;;;;;;;;;;;;;;;5027304;28;1099;-71
2024/01/14 01:52:55;;;;;;;;;;;;;;;;;;5032444;28;1213;-71
2024/01/14 01:55:21;;;;;;;;;;;;;;;;;;5031710;28;1165;-71
2024/01/14 01:57:46;;;;;;;;;;;;;;;;;;5031867;28;1236;-71
2024/01/14 02:00:12;;;;;;;;;;;;;;;;;;5011020;28;1356;-72
2024/01/14 02:02:40;;;;;;;;;;;;;;;;;;5028898;28;1970;-71
2024/01/14 02:05:06;;;;;;;;;;;;;;;;;;5031242;28;1150;-72
2024/01/14 02:07:31;;;;;;;;;;;;;;;;;;5013251;28;1304;-72
2024/01/14 02:09:56;;;;;;;;;;;;;;;;;;5032066;28;1165;-72
2024/01/14 02:12:22;;;;;;;;;;;;;;;;;;5031752;28;1173;-71
2024/01/14 02:14:47;;;;;;;;;;;;;;;;;;5030421;28;1174;-72
2024/01/14 02:17:12;;;;;;;;;;;;;;;;;;5034441;28;995;-71
2024/01/14 02:19:38;;;;;;;;;;;;;;;;;;5033732;28;1001;-72
2024/01/14 02:22:11;;;;;;;;;;;;;;;;;;5032611;28;1953;-72
2024/01/14 02:24:37;;;;;;;;;;;;;;;;;;5033712;28;933;-72
2024/01/14 02:27:02;;;;;;;;;;;;;;;;;;5034228;28;915;-71
2024/01/14 02:29:28;;;;;;;;;;;;;;;;;;5033841;28;876;-72
2024/01/14 02:31:53;;;;;;;;;;;;;;;;;;5033910;28;817;-72
2024/01/14 02:34:18;;;;;;;;;;;;;;;;;;5033964;28;987;-72
2024/01/14 02:36:44;;;;;;;;;;;;;;;;;;5049167;28;1127;-72
2024/01/14 02:39:09;;;;;;;;;;;;;;;;;;5032398;28;1282;-72
2024/01/14 02:41:34;;;;;;;;;;;;;;;;;;5033967;28;1971;-71
2024/01/14 02:43:59;;;;;;;;;;;;;;;;;;5033322;28;1023;-72
2024/01/14 02:46:25;;;;;;;;;;;;;;;;;;5033893;28;1157;-72
2024/01/14 02:48:50;;;;;;;;;;;;;;;;;;5033751;28;999;-72
2024/01/14 02:51:15;;;;;;;;;;;;;;;;;;5033351;28;813;-72
2024/01/14 02:53:42;;;;;;;;;;;;;;;;;;5033522;28;983;-71
2024/01/14 02:56:07;;;;;;;;;;;;;;;;;;5049284;28;1310;-72
2024/01/14 02:58:33;;;;;;;;;;;;;;;;;;5033613;28;801;-71
2024/01/14 03:00:58;;;;;;;;;;;;;;;;;;5033772;28;888;-72
2024/01/14 03:03:23;;;;;;;;;;;;;;;;;;5033311;28;1902;-71
2024/01/14 03:05:48;;;;;;;;;;;;;;;;;;5033631;28;1007;-72
2024/01/14 03:08:13;;;;;;;;;;;;;;;;;;5033404;28;931;-71
2024/01/14 03:10:39;;;;;;;;;;;;;;;;;;5032197;28;1369;-72
2024/01/14 03:13:04;;;;;;;;;;;;;;;;;;5033175;28;817;-72
2024/01/14 03:15:30;;;;;;;;;;;;;;;;;;5032797;28;856;-72
2024/01/14 03:17:55;;;;;;;;;;;;;;;;;;5031802;28;1222;-71
2024/01/14 03:20:21;;;;;;;;;;;;;;;;;;5031749;28;1171;-72
2024/01/14 03:22:46;;;;;;;;;;;;;;;;;;5015623;28;1910;-72
2024/01/14 03:25:12;;;;;;;;;;;;;;;;;;5032145;28;1149;-72
2024/01/14 03:27:37;;;;;;;;;;;;;;;;;;5033279;28;974;-72
2024/01/14 03:30:02;;;;;;;;;;;;;;;;;;5033160;28;864;-72
2024/01/14 03:32:28;;;;;;;;;;;;;;;;;;5033115;28;869;-71
2024/01/14 03:34:53;;;;;;;;;;;;;;;;;;5033041;28;891;-71
2024/01/14 03:37:18;;;;;;;;;;;;;;;;;;5049011;28;1269;-70
2024/01/14 03:39:43;;;;;;;;;;;;;;;;;;5033012;28;904;-70
2024/01/14 03:42:09;;;;;;;;;;;;;;;;;;5032816;28;1893;-72
2024/01/14 03:44:34;;;;;;;;;;;;;;;;;;5031978;28;1369;-71
2024/01/14 03:46:59;;;;;;;;;;;;;;;;;;5032888;28;1071;-71
2024/01/14 03:49:24;;;;;;;;;;;;;;;;;;5032879;28;991;-71
2024/01/14 03:51:50;;;;;;;;;;;;;;;;;;5033052;28;943;-71
2024/01/14 03:54:15;;;;;;;;;;;;;;;;;;5031738;28;1313;-71
2024/01/14 03:56:40;;;;;;;;;;;;;;;;;;5048249;28;1117;-71
2024/01/14 03:59:06;;;;;;;;;;;;;;;;;;5033483;28;912;-71
2024/01/14 04:01:31;;;;;;;;;;;;;;;;;;5031556;28;1918;-71
2024/01/14 04:03:56;;;;;;;;;;;;;;;;;;5048503;28;1251;-71
2024/01/14 04:06:22;;;;;;;;;;;;;;;;;;5032676;28;884;-70
2024/01/14 04:08:47;;;;;;;;;;;;;;;;;;5032728;28;834;-70
2024/01/14 04:11:12;;;;;;;;;;;;;;;;;;5032952;28;872;-71
2024/01/14 04:13:38;;;;;;;;;;;;;;;;;;5032730;28;904;-71
2024/01/14 04:16:03;;;;;;;;;;;;;;;;;;5032403;28;908;-71
2024/01/14 04:18:29;;;;;;;;;;;;;;;;;;5032734;28;849;-71
2024/01/14 04:20:54;;;;;;;;;;;;;;;;;;5032676;28;1089;-70
2024/01/14 04:23:19;;;;;;;;;;;;;;;;;;5032611;28;1910;-70
2024/01/14 04:25:45;;;;;;;;;;;;;;;;;;5034047;28;880;-72
2024/01/14 04:28:10;;;;;;;;;;;;;;;;;;5034794;28;1271;-71
2024/01/14 04:30:35;;;;;;;;;;;;;;;;;;5036627;28;975;-71
2024/01/14 04:33:00;;;;;;;;;;;;;;;;;;5034371;28;1191;-71
2024/01/14 04:35:25;;;;;;;;;;;;;;;;;;5034556;28;1270;-71
2024/01/14 04:37:50;;;;;;;;;;;;;;;;;;5036108;28;883;-71
2024/01/14 04:40:16;;;;;;;;;;;;;;;;;;5034411;28;1425;-71
2024/01/14 04:42:41;;;;;;;;;;;;;;;;;;5034587;28;1918;-70
2024/01/14 04:45:07;;;;;;;;;;;;;;;;;;5036286;28;849;-71
2024/01/14 04:47:32;;;;;;;;;;;;;;;;;;5034753;28;1204;-71
2024/01/14 04:49:57;;;;;;;;;;;;;;;;;;5035884;28;877;-72
2024/01/14 04:52:23;;;;;;;;;;;;;;;;;;5035897;28;951;-72
2024/01/14 04:54:49;;;;;;;;;;;;;;;;;;5035562;28;1190;-73
2024/01/14 04:57:15;;;;;;;;;;;;;;;;;;5051733;28;1179;-72
2024/01/14 04:59:41;;;;;;;;;;;;;;;;;;5034493;28;1392;-72
2024/01/14 05:02:07;;;;;;;;;;;;;;;;;;5034481;28;1977;-72
2024/01/14 05:04:32;;;;;;;;;;;;;;;;;;5014112;28;1477;-72
2024/01/14 05:06:57;;;;;;;;;;;;;;;;;;4995340;28;1346;-70
2024/01/14 05:09:22;;;;;;;;;;;;;;;;;;5017333;28;1252;-70
2024/01/14 05:11:49;;;;;;;;;;;;;;;;;;5034927;28;998;-71
2024/01/14 05:14:14;;;;;;;;;;;;;;;;;;5035372;28;824;-71
2024/01/14 05:16:39;;;;;;;;;;;;;;;;;;5035707;28;1044;-72
2024/01/14 05:19:05;;;;;;;;;;;;;;;;;;5017319;28;1145;-72
2024/01/14 05:21:30;;;;;;;;;;;;;;;;;;5017042;28;1930;-72
2024/01/14 05:23:55;;;;;;;;;;;;;;;;;;5017264;28;1282;-72
2024/01/14 05:26:20;;;;;;;;;;;;;;;;;;5035785;28;983;-72
2024/01/14 05:28:46;;;;;;;;;;;;;;;;;;5034998;28;817;-72
2024/01/14 05:31:11;;;;;;;;;;;;;;;;;;5017053;28;1358;-72
2024/01/14 05:33:36;;;;;;;;;;;;;;;;;;5016693;28;1267;-72
2024/01/14 05:36:01;;;;;;;;;;;;;;;;;;5017062;28;1164;-72
2024/01/14 05:38:26;;;;;;;;;;;;;;;;;;5034347;28;794;-72
2024/01/14 05:40:52;;;;;;;;;;;;;;;;;;5017477;28;1266;-70
2024/01/14 05:43:17;;;;;;;;;;;;;;;;;;5034810;28;1898;-72
2024/01/14 05:45:42;;;;;;;;;;;;;;;;;;5016968;28;1167;-72
2024/01/14 05:48:08;;;;;;;;;;;;;;;;;;5013258;28;1252;-72
2024/01/14 05:50:33;;;;;;;;;;;;;;;;;;5030892;28;1188;-72
2024/01/14 05:52:58;;;;;;;;;;;;;;;;;;5032132;28;1215;-72
2024/01/14 05:55:23;;;;;;;;;;;;;;;;;;5028789;28;1173;-72
2024/01/14 05:57:48;;;;;;;;;;;;;;;;;;5029494;28;1504;-72
2024/01/14 06:00:14;;;;;;;;;;;;;;;;;;5031024;28;1224;-71
2024/01/14 06:02:39;;;;;;;;;;;;;;;;;;5011951;28;1902;-73
2024/01/14 06:05:04;;;;;;;;;;;;;;;;;;5031549;28;1161;-72
2024/01/14 06:07:29;;;;;;;;;;;;;;;;;;5034897;28;1271;-72
2024/01/14 06:09:55;;;;;;;;;;;;;;;;;;5032556;28;1164;-72
2024/01/14 06:12:20;;;;;;;;;;;;;;;;;;5049462;28;1288;-71
2024/01/14 06:14:45;;;;;;;;;;;;;;;;;;5034495;28;891;-71
2024/01/14 06:17:11;;;;;;;;;;;;;;;;;;5034498;28;1001;-71
2024/01/14 06:19:37;;;;;;;;;;;;;;;;;;5049263;28;1160;-71
2024/01/14 06:22:02;;;;;;;;;;;;;;;;;;5034578;28;1981;-71
2024/01/14 06:24:27;;;;;;;;;;;;;;;;;;5016036;28;1331;-71
2024/01/14 06:26:53;;;;;;;;;;;;;;;;;;5033742;28;746;-72
2024/01/14 06:29:18;;;;;;;;;;;;;;;;;;5015985;28;1244;-72
2024/01/14 06:31:44;;;;;;;;;;;;;;;;;;5033812;28;1003;-71
2024/01/14 06:34:09;;;;;;;;;;;;;;;;;;5016076;28;1253;-71
2024/01/14 06:36:34;;;;;;;;;;;;;;;;;;5033853;28;855;-71
2024/01/14 06:38:59;;;;;;;;;;;;;;;;;;5015868;28;1137;-71
2024/01/14 06:41:25;;;;;;;;;;;;;;;;;;5033837;28;833;-71
2024/01/14 06:43:50;;;;;;;;;;;;;;;;;;5049084;28;1949;-71
2024/01/14 06:46:16;;;;;;;;;;;;;;;;;;5016257;28;1402;-72
2024/01/14 06:48:41;;;;;;;;;;;;;;;;;;5048750;28;1607;-72
2024/01/14 06:51:06;;;;;;;;;;;;;;;;;;5032110;28;1132;-71
2024/01/14 06:53:31;;;;;;;;;;;;;;;;;;5015797;28;1276;-71
2024/01/14 06:55:56;;;;;;;;;;;;;;;;;;5015532;28;1267;-71
2024/01/14 06:58:22;;;;;;;;;;;;;;;;;;5034024;28;892;-77
2024/01/14 07:00:47;;;;;;;;;;;;;;;;;;5034162;28;919;-77
2024/01/14 07:03:13;;;;;;;;;;;;;;;;;;5032830;28;1957;-77
2024/01/14 07:05:38;;;;;;;;;;;;;;;;;;5030444;28;1137;-71
2024/01/14 07:08:05;;;;;;;;;;;;;;;;;;5012842;28;1165;-71
2024/01/14 07:10:30;;;;;;;;;;;;;;;;;;5025755;28;1173;-71
2024/01/14 07:12:55;;;;;;;;;;;;;;;;;;5030457;28;1228;-71
2024/01/14 07:15:21;;;;;;;;;;;;;;;;;;5031586;28;1236;-71
2024/01/14 07:17:46;;;;;;;;;;;;;;;;;;5031935;28;1295;-71
2024/01/14 07:20:11;;;;;;;;;;;;;;;;;;5032863;28;1003;-72
2024/01/14 07:22:37;;;;;;;;;;;;;;;;;;5033730;28;1902;-71
2024/01/14 07:25:02;;;;;;;;;;;;;;;;;;5033999;28;1141;-72
2024/01/14 07:27:27;;;;;;;;;;;;;;;;;;5030268;28;1165;-72
2024/01/14 07:29:53;;;;;;;;;;;;;;;;;;5030020;28;1177;-71
2024/01/14 07:32:18;;;;;;;;;;;;;;;;;;5011317;28;1662;-71
2024/01/14 07:34:43;;;;;;;;;;;;;;;;;;5018127;28;1237;-72
2024/01/14 07:37:08;;;;;;;;;;;;;;;;;;5028302;28;1127;-72
2024/01/14 07:39:33;;;;;;;;;;;;;;;;;;5028554;28;1176;-71
2024/01/14 07:41:59;;;;;;;;;;;;;;;;;;5030352;28;1902;-71
2024/01/14 07:44:24;;;;;;;;;;;;;;;;;;5029462;28;1303;-71
2024/01/14 07:46:49;;;;;;;;;;;;;;;;;;5016399;28;1181;-72
2024/01/14 07:49:14;;;;;;;;;;;;;;;;;;5013209;28;786;-71
2024/01/14 07:51:40;;;;;;;;;;;;;;;;;;5013410;28;813;-71
2024/01/14 07:54:05;;;;;;;;;;;;;;;;;;5013622;28;817;-72
2024/01/14 07:56:30;;;;;;;;;;;;;;;;;;5011616;28;1293;-71
2024/01/14 07:58:55;;;;;;;;;;;;;;;;;;5013571;28;821;-72
2024/01/14 08:01:20;;;;;;;;;;;;;;;;;;4998026;28;1209;-72
2024/01/14 08:03:46;;;;;;;;;;;;;;;;;;5029220;28;1902;-71
2024/01/14 08:06:11;;;;;;;;;;;;;;;;;;5032146;28;1212;-71
2024/01/14 08:08:37;;;;;;;;;;;;;;;;;;5012138;28;1284;-72
2024/01/14 08:11:02;;;;;;;;;;;;;;;;;;5031582;28;1228;-71
2024/01/14 08:13:28;;;;;;;;;;;;;;;;;;5033852;28;1353;-71
2024/01/14 08:15:53;;;;;;;;;;;;;;;;;;5029646;28;1283;-71
2024/01/14 08:18:19;;;;;;;;;;;;;;;;;;5033680;28;1554;-72
2024/01/14 08:20:44;;;;;;;;;;;;;;;;;;5036293;28;774;-71
2024/01/14 08:23:10;;;;;;;;;;;;;;;;;;5035989;28;2044;-73
2024/01/14 08:25:35;;;;;;;;;;;;;;;;;;5018480;28;1442;-71
2024/01/14 08:28:00;;;;;;;;;;;;;;;;;;5034914;28;1172;-71
2024/01/14 08:30:25;;;;;;;;;;;;;;;;;;5036639;28;991;-71
2024/01/14 08:32:50;;;;;;;;;;;;;;;;;;5036628;28;810;-71
2024/01/14 08:35:17;;;;;;;;;;;;;;;;;;5036215;28;1049;-71
2024/01/14 08:37:43;;;;;;;;;;;;;;;;;;5034774;28;1232;-71
2024/01/14 08:40:10;;;;;;;;;;;;;;;;;;5035950;28;865;-71
2024/01/14 08:42:35;;;;;;;;;;;;;;;;;;5036499;28;1965;-71
2024/01/14 08:45:02;;;;;;;;;;;;;;;;;;5035836;28;990;-72
2024/01/14 08:47:28;;;;;;;;;;;;;;;;;;5035745;28;832;-72
2024/01/14 08:49:53;;;;;;;;;;;;;;;;;;5022783;28;1157;-72
2024/01/14 08:52:18;;;;;;;;;;;;;;;;;;5024823;28;1185;-71
2024/01/14 08:54:43;;;;;;;;;;;;;;;;;;5015895;28;1312;-71
2024/01/14 08:57:10;;;;;;;;;;;;;;;;;;5034177;28;1169;-72
2024/01/14 08:59:35;;;;;;;;;;;;;;;;;;5032889;28;1295;-71
2024/01/14 09:02:00;;;;;;;;;;;;;;;;;;5026821;28;1991;-72
2024/01/14 09:04:25;;;;;;;;;;;;;;;;;;5015313;28;1157;-72
2024/01/14 09:06:50;;;;;;;;;;;;;;;;;;5017056;28;1206;-72
2024/01/14 09:09:16;;;;;;;;;;;;;;;;;;5030730;28;1165;-71
2024/01/14 09:11:41;;;;;;;;;;;;;;;;;;5013136;28;1317;-71
2024/01/14 09:14:06;;;;;;;;;;;;;;;;;;5030688;28;1185;-71
2024/01/14 09:16:31;;;;;;;;;;;;;;;;;;5015115;28;1409;-71
2024/01/14 09:18:57;;;;;;;;;;;;;;;;;;5035000;28;833;-72
2024/01/14 09:21:22;;;;;;;;;;;;;;;;;;5035270;28;907;-72
2024/01/14 09:23:47;;;;;;;;;;;;;;;;;;5017757;28;1911;-71
2024/01/14 09:26:13;;;;;;;;;;;;;;;;;;5034941;28;868;-71
2024/01/14 09:28:38;;;;;;;;;;;;;;;;;;5016957;28;1187;-71
2024/01/14 09:31:04;;;;;;;;;;;;;;;;;;5017036;28;1327;-72
2024/01/14 09:33:29;;;;;;;;;;;;;;;;;;5016911;28;1171;-72
2024/01/14 09:35:57;;;;;;;;;;;;;;;;;;5016184;28;1244;-71
2024/01/14 09:38:22;;;;;;;;;;;;;;;;;;5034400;28;864;-77
2024/01/14 09:41:00;;;;;;;;;;;;;;;;;;5017731;28;1426;-76
2024/01/14 09:43:27;;;;;;;;;;;;;;;;;;5035105;28;1973;-78
2024/01/14 09:45:52;;;;;;;;;;;;;;;;;;5017744;28;1280;-77
2024/01/14 09:48:18;;;;;;;;;;;;;;;;;;5036031;28;833;-76
2024/01/14 09:50:44;;;;;;;;;;;;;;;;;;5016880;28;1413;-72
2024/01/14 09:53:11;;;;;;;;;;;;;;;;;;5016625;28;1105;-71
2024/01/14 09:55:36;;;;;;;;;;;;;;;;;;5034338;28;786;-72
2024/01/14 09:58:04;;;;;;;;;;;;;;;;;;5016471;28;1183;-71
2024/01/14 10:00:29;;;;;;;;;;;;;;;;;;5016891;28;1334;-72
2024/01/14 10:02:56;;;;;;;;;;;;;;;;;;5016841;28;1898;-72
2024/01/14 10:05:21;;;;;;;;;;;;;;;;;;5017099;28;1090;-73
2024/01/14 10:07:46;;;;;;;;;;;;;;;;;;5012982;28;1252;-73
2024/01/14 10:10:12;;;;;;;;;;;;;;;;;;5029515;28;1302;-73
2024/01/14 10:12:37;;;;;;;;;;;;;;;;;;5036031;28;1181;-73
2024/01/14 10:15:04;;;;;;;;;;;;;;;;;;5031687;28;1201;-73
2024/01/14 10:17:30;;;;;;;;;;;;;;;;;;5032337;28;1208;-73
2024/01/14 10:19:57;;;;;;;;;;;;;;;;;;5017007;28;1204;-73
2024/01/14 10:22:23;;;;;;;;;;;;;;;;;;5039536;28;1968;-73
2024/01/14 10:24:51;;;;;;;;;;;;;;;;;;5049570;28;976;-75
2024/01/14 10:27:17;;;;;;;;;;;;;;;;;;5054310;28;959;-74
2024/01/14 10:29:42;;;;;;;;;;;;;;;;;;5054662;28;1050;-74
2024/01/14 10:32:08;;;;;;;;;;;;;;;;;;5051634;28;1288;-73
2024/01/14 10:34:33;;;;;;;;;;;;;;;;;;5041256;28;1244;-73
2024/01/14 10:37:03;;;;;;;;;;;;;;;;;;5020819;28;1263;-73
2024/01/14 10:39:31;;;;;;;;;;;;;;;;;;5034897;28;1161;-73
2024/01/14 10:41:57;;;;;;;;;;;;;;;;;;5033311;28;1955;-74
2024/01/14 10:44:22;;;;;;;;;;;;;;;;;;5033271;28;1335;-73
2024/01/14 10:46:51;;;;;;;;;;;;;;;;;;5035133;28;1299;-73
2024/01/14 10:49:18;;;;;;;;;;;;;;;;;;5018472;28;1193;-73
2024/01/14 10:51:48;;;;;;;;;;;;;;;;;;5036230;28;883;-73
2024/01/14 10:54:14;;;;;;;;;;;;;;;;;;5035897;28;757;-73
2024/01/14 10:56:42;;;;;;;;;;;;;;;;;;5035840;28;828;-73
2024/01/14 10:59:08;;;;;;;;;;;;;;;;;;5035431;28;876;-73
2024/01/14 11:01:36;;;;;;;;;;;;;;;;;;5034485;28;1007;-73
2024/01/14 11:04:03;;;;;;;;;;;;;;;;;;5034308;28;1898;-73
2024/01/14 11:06:29;;;;;;;;;;;;;;;;;;5034975;28;845;-73
2024/01/14 11:08:54;;;;;;;;;;;;;;;;;;5034567;28;1173;-74
2024/01/14 11:11:24;;;;;;;;;;;;;;;;;;5016455;28;1181;-74
2024/01/14 11:13:54;;;;;;;;;;;;;;;;;;5016188;28;1176;-73
2024/01/14 11:16:29;;;;;;;;;;;;;;;;;;5033992;28;970;-73
2024/01/14 11:19:03;;;;;;;;;;;;;;;;;;5016387;28;1273;-73
2024/01/14 11:21:28;;;;;;;;;;;;;;;;;;5016569;28;1271;-73
2024/01/14 11:23:54;;;;;;;;;;;;;;;;;;5032513;28;1879;-73
2024/01/14 11:26:20;;;;;;;;;;;;;;;;;;5034434;28;907;-73
2024/01/14 11:28:45;;;;;;;;;;;;;;;;;;5034431;28;828;-74
2024/01/14 11:31:10;;;;;;;;;;;;;;;;;;5032508;28;833;-73
2024/01/14 11:33:40;;;;;;;;;;;;;;;;;;5033586;28;912;-73
2024/01/14 11:36:07;;;;;;;;;;;;;;;;;;5017067;28;1201;-73
2024/01/14 11:38:44;;;;;;;;;;;;;;;;;;5018917;28;1218;-73
2024/01/14 11:41:23;;;;;;;;;;;;;;;;;;5037331;28;987;-73
2024/01/14 11:43:50;;;;;;;;;;;;;;;;;;5037269;28;1902;-72
2024/01/14 11:46:33;;;;;;;;;;;;;;;;;;5019290;28;1390;-73
2024/01/14 11:48:58;;;;;;;;;;;;;;;;;;5035666;28;1204;-77
2024/01/14 11:51:24;;;;;;;;;;;;;;;;;;5035500;28;900;-77
2024/01/14 11:53:49;;;;;;;;;;;;;;;;;;5037307;28;872;-77
2024/01/14 11:56:27;;;;;;;;;;;;;;;;;;5037091;28;978;-76
2024/01/14 11:58:52;;;;;;;;;;;;;;;;;;5037265;28;896;-77
2024/01/14 12:01:19;;;;;;;;;;;;;;;;;;5019826;28;1272;-76
2024/01/14 12:03:44;;;;;;;;;;;;;;;;;;5019655;28;1914;-77
2024/01/14 12:06:10;;;;;;;;;;;;;;;;;;5037686;28;822;-77
2024/01/14 12:08:35;;;;;;;;;;;;;;;;;;5019562;28;1285;-77
2024/01/14 12:11:01;;;;;;;;;;;;;;;;;;5019032;28;1237;-77
2024/01/14 12:13:26;;;;;;;;;;;;;;;;;;5036979;28;821;-73
2024/01/14 12:15:51;;;;;;;;;;;;;;;;;;5036804;28;951;-73
2024/01/14 12:18:16;;;;;;;;;;;;;;;;;;5036139;28;935;-73
2024/01/14 12:20:43;;;;;;;;;;;;;;;;;;5019192;28;1390;-73
2024/01/14 12:23:09;;;;;;;;;;;;;;;;;;5036743;28;1961;-73
2024/01/14 12:25:35;;;;;;;;;;;;;;;;;;5019267;28;1078;-73
2024/01/14 12:28:00;;;;;;;;;;;;;;;;;;5018716;28;1179;-73
2024/01/14 12:30:27;;;;;;;;;;;;;;;;;;5036655;28;884;-73
2024/01/14 12:32:52;;;;;;;;;;;;;;;;;;5019113;28;1231;-73
2024/01/14 12:35:18;;;;;;;;;;;;;;;;;;5018770;28;1201;-73
2024/01/14 12:37:43;;;;;;;;;;;;;;;;;;5036677;28;816;-73
2024/01/14 12:40:09;;;;;;;;;;;;;;;;;;5017185;28;1138;-73
2024/01/14 12:42:34;;;;;;;;;;;;;;;;;;5036070;28;1972;-73
2024/01/14 12:44:59;;;;;;;;;;;;;;;;;;5036012;28;887;-74
2024/01/14 12:47:24;;;;;;;;;;;;;;;;;;5034812;28;987;-73
2024/01/14 12:49:53;;;;;;;;;;;;;;;;;;5035469;28;900;-73
2024/01/14 12:52:19;;;;;;;;;;;;;;;;;;5035842;28;900;-73
2024/01/14 12:54:48;;;;;;;;;;;;;;;;;;5035482;28;987;-73
2024/01/14 12:57:14;;;;;;;;;;;;;;;;;;5035696;28;927;-74
2024/01/14 12:59:39;;;;;;;;;;;;;;;;;;5035601;28;915;-73
2024/01/14 13:02:04;;;;;;;;;;;;;;;;;;5035616;28;1977;-73
2024/01/14 13:04:29;;;;;;;;;;;;;;;;;;5035521;28;845;-73
2024/01/14 13:06:55;;;;;;;;;;;;;;;;;;5037415;28;872;-73
2024/01/14 13:09:20;;;;;;;;;;;;;;;;;;5043500;28;959;-73
2024/01/14 13:11:46;;;;;;;;;;;;;;;;;;5017620;28;1166;-74
2024/01/14 13:14:12;;;;;;;;;;;;;;;;;;5035683;28;848;-74
2024/01/14 13:16:37;;;;;;;;;;;;;;;;;;5036020;28;911;-74
2024/01/14 13:19:03;;;;;;;;;;;;;;;;;;5018025;28;1362;-74
2024/01/14 13:21:28;;;;;;;;;;;;;;;;;;5017987;28;1145;-74
2024/01/14 13:23:54;;;;;;;;;;;;;;;;;;5035594;28;1898;-74
2024/01/14 13:26:19;;;;;;;;;;;;;;;;;;5035397;28;857;-74
2024/01/14 13:28:44;;;;;;;;;;;;;;;;;;5017640;28;1172;-74
2024/01/14 13:31:09;;;;;;;;;;;;;;;;;;5017695;28;1540;-74
2024/01/14 13:33:35;;;;;;;;;;;;;;;;;;5023222;28;1252;-74
2024/01/14 13:36:00;;;;;;;;;;;;;;;;;;5043774;28;884;-74
2024/01/14 13:38:25;;;;;;;;;;;;;;;;;;5050257;28;972;-73
2024/01/14 13:40:50;;;;;;;;;;;;;;;;;;5053267;28;1027;-73
2024/01/14 13:43:16;;;;;;;;;;;;;;;;;;5055768;28;1879;-73
2024/01/14 13:45:41;;;;;;;;;;;;;;;;;;5037175;28;1134;-73
2024/01/14 13:48:06;;;;;;;;;;;;;;;;;;5054835;28;940;-73
2024/01/14 13:50:31;;;;;;;;;;;;;;;;;;5020205;28;1399;-72
2024/01/14 13:52:57;;;;;;;;;;;;;;;;;;5042338;28;960;-73
2024/01/14 13:55:24;;;;;;;;;;;;;;;;;;5037106;28;892;-73
2024/01/14 13:57:49;;;;;;;;;;;;;;;;;;5018321;28;1176;-73
2024/01/14 14:00:15;;;;;;;;;;;;;;;;;;5035187;28;884;-73
2024/01/14 14:02:40;;;;;;;;;;;;;;;;;;5016459;28;1886;-72
2024/01/14 14:05:05;;;;;;;;;;;;;;;;;;5016670;28;1498;-73
2024/01/14 14:07:31;;;;;;;;;;;;;;;;;;5034194;28;802;-73
2024/01/14 14:09:56;;;;;;;;;;;;;;;;;;5034423;28;845;-73
2024/01/14 14:12:21;;;;;;;;;;;;;;;;;;5034536;28;817;-73
2024/01/14 14:14:47;;;;;;;;;;;;;;;;;;5019234;28;1229;-73
2024/01/14 14:17:12;;;;;;;;;;;;;;;;;;5035033;28;1053;-73
2024/01/14 14:19:37;;;;;;;;;;;;;;;;;;5034388;28;983;-73
2024/01/14 14:22:02;;;;;;;;;;;;;;;;;;5034301;28;1953;-73
2024/01/14 14:24:28;;;;;;;;;;;;;;;;;;5034064;28;998;-73
2024/01/14 14:26:54;;;;;;;;;;;;;;;;;;5034518;28;821;-73
2024/01/14 14:29:19;;;;;;;;;;;;;;;;;;5016396;28;1254;-73
2024/01/14 14:31:44;;;;;;;;;;;;;;;;;;5016162;28;1263;-72
2024/01/14 14:34:09;;;;;;;;;;;;;;;;;;5016131;28;1272;-73
2024/01/14 14:36:35;;;;;;;;;;;;;;;;;;5016299;28;1327;-73
2024/01/14 14:39:00;;;;;;;;;;;;;;;;;;5034783;28;864;-74
2024/01/14 14:41:25;;;;;;;;;;;;;;;;;;5033963;28;833;-74
2024/01/14 14:43:50;;;;;;;;;;;;;;;;;;5034040;28;1914;-74
2024/01/14 14:46:16;;;;;;;;;;;;;;;;;;5034389;28;810;-73
2024/01/14 14:48:41;;;;;;;;;;;;;;;;;;5034450;28;837;-77
2024/01/14 14:51:06;;;;;;;;;;;;;;;;;;5016026;28;1197;-77
2024/01/14 14:53:31;;;;;;;;;;;;;;;;;;5016257;28;1237;-77
2024/01/14 14:55:57;;;;;;;;;;;;;;;;;;5016076;28;1222;-77
2024/01/14 14:58:22;;;;;;;;;;;;;;;;;;5033832;28;1006;-77
2024/01/14 15:00:48;;;;;;;;;;;;;;;;;;5033781;28;841;-77
2024/01/14 15:03:13;;;;;;;;;;;;;;;;;;5033907;28;1976;-77
2024/01/14 15:05:38;;;;;;;;;;;;;;;;;;5034209;28;904;-78
2024/01/14 15:08:04;;;;;;;;;;;;;;;;;;5015837;28;1423;-77
2024/01/14 15:10:29;;;;;;;;;;;;;;;;;;5033217;28;916;-77
2024/01/14 15:12:54;;;;;;;;;;;;;;;;;;5016331;28;1224;-76
2024/01/14 15:15:20;;;;;;;;;;;;;;;;;;5032634;28;888;-78
2024/01/14 15:17:45;;;;;;;;;;;;;;;;;;5033371;28;1039;-77
2024/01/14 15:20:10;;;;;;;;;;;;;;;;;;5015285;28;1216;-78
2024/01/14 15:22:36;;;;;;;;;;;;;;;;;;5033578;28;1965;-78
2024/01/14 15:25:01;;;;;;;;;;;;;;;;;;5015874;28;1186;-77
2024/01/14 15:27:27;;;;;;;;;;;;;;;;;;5033496;28;888;-78
2024/01/14 15:29:53;;;;;;;;;;;;;;;;;;5033392;28;880;-78
2024/01/14 15:32:18;;;;;;;;;;;;;;;;;;5015970;28;1195;-78
2024/01/14 15:34:44;;;;;;;;;;;;;;;;;;5033187;28;991;-78
2024/01/14 15:37:09;;;;;;;;;;;;;;;;;;5016300;28;1181;-78
2024/01/14 15:39:34;;;;;;;;;;;;;;;;;;5015942;28;1188;-78
2024/01/14 15:41:59;;;;;;;;;;;;;;;;;;5015881;28;1961;-73
2024/01/14 15:44:25;;;;;;;;;;;;;;;;;;5015458;28;1168;-72
2024/01/14 15:46:50;;;;;;;;;;;;;;;;;;5033229;28;836;-72
2024/01/14 15:49:15;;;;;;;;;;;;;;;;;;5033091;28;987;-72
2024/01/14 15:51:40;;;;;;;;;;;;;;;;;;5014918;28;1305;-72
2024/01/14 15:54:09;;;;;;;;;;;;;;;;;;5033327;28;943;-73
2024/01/14 15:56:34;;;;;;;;;;;;;;;;;;5015292;28;1196;-73
2024/01/14 15:58:59;;;;;;;;;;;;;;;;;;5015012;28;1188;-73
2024/01/14 16:01:25;;;;;;;;;;;;;;;;;;5033218;28;841;-73
2024/01/14 16:03:51;;;;;;;;;;;;;;;;;;5033561;28;1938;-78
2024/01/14 16:06:17;;;;;;;;;;;;;;;;;;5016623;28;1187;-77
2024/01/14 16:08:45;;;;;;;;;;;;;;;;;;5016169;28;1039;-78
2024/01/14 16:11:11;;;;;;;;;;;;;;;;;;5033949;28;896;-78
2024/01/14 16:13:36;;;;;;;;;;;;;;;;;;5033726;28;820;-77
2024/01/14 16:16:03;;;;;;;;;;;;;;;;;;5033213;28;946;-78
2024/01/14 16:18:28;;;;;;;;;;;;;;;;;;5016032;28;1204;-77
2024/01/14 16:20:53;;;;;;;;;;;;;;;;;;5015767;28;1134;-77
2024/01/14 16:23:18;;;;;;;;;;;;;;;;;;5020029;28;1898;-78
2024/01/14 16:25:44;;;;;;;;;;;;;;;;;;5037066;28;837;-78
2024/01/14 16:28:09;;;;;;;;;;;;;;;;;;5037295;28;845;-78
2024/01/14 16:30:34;;;;;;;;;;;;;;;;;;5037215;28;840;-78
2024/01/14 16:33:00;;;;;;;;;;;;;;;;;;5019274;28;1261;-78
2024/01/14 16:35:25;;;;;;;;;;;;;;;;;;5019519;28;1491;-77
2024/01/14 16:37:50;;;;;;;;;;;;;;;;;;5037272;28;892;-78
2024/01/14 16:40:17;;;;;;;;;;;;;;;;;;5019905;28;1140;-78
2024/01/14 16:42:43;;;;;;;;;;;;;;;;;;5036344;28;1898;-78
2024/01/14 16:45:09;;;;;;;;;;;;;;;;;;5018737;28;1309;-79
2024/01/14 16:47:34;;;;;;;;;;;;;;;;;;5018735;28;1284;-77
2024/01/14 16:50:03;;;;;;;;;;;;;;;;;;5019084;28;1395;-78
2024/01/14 16:52:29;;;;;;;;;;;;;;;;;;5036569;28;896;-77
2024/01/14 16:54:54;;;;;;;;;;;;;;;;;;5036755;28;876;-73
2024/01/14 16:57:19;;;;;;;;;;;;;;;;;;5018231;28;1161;-73
2024/01/14 16:59:45;;;;;;;;;;;;;;;;;;5036090;28;852;-73